Time;durP1;ratioP1;P1;durP2;ratioP2;P2;SDS_P1;SDS_P2;PMS_P1;PMS_P2;Temp;Humidity;BMP_temperature;BMP_pressure;BME280_temperature;BME280_humidity;BME280_pressure;Samples;Min_cycle;Max_cycle;Signal;HPM_P1;HPM_P2
2023/01/04 00:02:20;;;;;;;10.00;2.60;;;;;;;;;;4934279;28;20334;-63
2023/01/04 00:04:45;;;;;;;8.97;2.00;;;;;;;;;;4934775;28;20207;-64
2023/01/04 00:07:11;;;;;;;8.43;1.85;;;;;;;;;;4943850;28;20215;-64
2023/01/04 00:09:36;;;;;;;8.25;2.15;;;;;;;;;;4953448;28;20635;-64
2023/01/04 00:12:01;;;;;;;9.30;2.33;;;;;;;;;;4953288;28;20210;-63
2023/01/04 00:14:27;;;;;;;6.07;1.83;;;;;;;;;;4952828;28;20211;-64
2023/01/04 00:16:52;;;;;;;10.55;2.00;;;;;;;;;;4940267;28;20233;-64
2023/01/04 00:19:17;;;;;;;8.83;2.17;;;;;;;;;;4944268;28;20223;-64
2023/01/04 00:21:43;;;;;;;9.93;2.05;;;;;;;;;;4944772;28;20250;-65
2023/01/04 00:24:08;;;;;;;9.18;2.10;;;;;;;;;;4943861;28;20222;-65
2023/01/04 00:26:34;;;;;;;8.27;2.28;;;;;;;;;;4944339;28;20745;-65
2023/01/04 00:29:00;;;;;;;6.07;2.10;;;;;;;;;;4939435;28;20273;-64
2023/01/04 00:31:25;;;;;;;6.10;1.25;;;;;;;;;;4932636;28;20218;-64
2023/01/04 00:33:52;;;;;;;7.80;1.92;;;;;;;;;;4934098;28;20215;-64
2023/01/04 00:36:17;;;;;;;9.03;2.00;;;;;;;;;;4938264;28;20306;-64
2023/01/04 00:38:43;;;;;;;6.22;1.75;;;;;;;;;;4941724;28;20240;-64
2023/01/04 00:41:08;;;;;;;4.85;1.35;;;;;;;;;;4934179;28;20203;-65
2023/01/04 00:43:34;;;;;;;6.90;1.48;;;;;;;;;;4923313;29;20211;-64
2023/01/04 00:46:00;;;;;;;5.32;1.83;;;;;;;;;;4922745;29;20207;-64
2023/01/04 00:48:25;;;;;;;5.23;1.37;;;;;;;;;;4922949;29;20229;-64
2023/01/04 00:50:51;;;;;;;6.00;1.50;;;;;;;;;;4922181;29;20211;-64
2023/01/04 00:53:16;;;;;;;3.45;1.27;;;;;;;;;;4915778;29;20220;-64
2023/01/04 00:55:41;;;;;;;4.17;1.27;;;;;;;;;;4914596;29;20294;-64
2023/01/04 00:58:07;;;;;;;6.95;2.03;;;;;;;;;;4916957;29;20265;-65
2023/01/04 01:00:32;;;;;;;5.45;1.80;;;;;;;;;;4922287;29;20270;-65
2023/01/04 01:02:58;;;;;;;6.50;1.90;;;;;;;;;;4940838;28;20214;-65
2023/01/04 01:05:23;;;;;;;8.65;2.15;;;;;;;;;;4940402;28;20575;-65
2023/01/04 01:07:48;;;;;;;6.85;2.03;;;;;;;;;;4923113;29;20563;-65
2023/01/04 01:10:13;;;;;;;5.47;1.90;;;;;;;;;;4922455;29;20251;-64
2023/01/04 01:12:39;;;;;;;8.35;2.30;;;;;;;;;;4922673;29;20218;-65
2023/01/04 01:15:04;;;;;;;8.55;2.33;;;;;;;;;;4916380;29;20250;-65
2023/01/04 01:17:30;;;;;;;8.30;2.13;;;;;;;;;;4915977;29;20457;-65
2023/01/04 01:19:55;;;;;;;6.93;2.23;;;;;;;;;;4915168;29;20778;-65
2023/01/04 01:22:20;;;;;;;6.50;1.60;;;;;;;;;;4921132;29;20219;-65
2023/01/04 01:24:45;;;;;;;5.95;1.90;;;;;;;;;;4923453;29;20608;-65
2023/01/04 01:27:11;;;;;;;2.47;1.27;;;;;;;;;;4922083;29;20218;-65
2023/01/04 01:29:36;;;;;;;7.90;1.90;;;;;;;;;;4922658;29;20306;-65
2023/01/04 01:32:01;;;;;;;7.50;1.90;;;;;;;;;;4922198;29;20211;-65
2023/01/04 01:34:27;;;;;;;5.43;1.87;;;;;;;;;;4922212;29;20310;-65
2023/01/04 01:36:52;;;;;;;5.57;1.70;;;;;;;;;;4918843;29;20326;-64
2023/01/04 01:39:17;;;;;;;5.37;1.63;;;;;;;;;;4915094;29;20223;-65
2023/01/04 01:41:43;;;;;;;5.57;1.90;;;;;;;;;;4915733;29;20487;-65
2023/01/04 01:44:27;;;;;;;6.93;1.93;;;;;;;;;;4918622;29;20254;-65
2023/01/04 01:46:52;;;;;;;4.78;1.60;;;;;;;;;;4923073;29;20257;-65
2023/01/04 01:49:24;;;;;;;7.93;2.00;;;;;;;;;;4920279;29;20250;-65
2023/01/04 01:51:50;;;;;;;6.57;1.83;;;;;;;;;;4922992;29;20765;-64
2023/01/04 01:54:19;;;;;;;3.20;1.35;;;;;;;;;;4926132;29;20290;-64
2023/01/04 01:56:44;;;;;;;4.43;1.60;;;;;;;;;;4948666;28;20223;-65
2023/01/04 01:59:10;;;;;;;4.70;1.63;;;;;;;;;;4950372;28;20217;-65
2023/01/04 02:01:35;;;;;;;4.85;1.60;;;;;;;;;;4933672;29;20277;-65
2023/01/04 02:04:01;;;;;;;3.97;1.40;;;;;;;;;;4950189;28;20297;-66
2023/01/04 02:06:28;;;;;;;3.93;1.40;;;;;;;;;;4933563;29;20218;-65
2023/01/04 02:08:53;;;;;;;6.75;1.60;;;;;;;;;;4933198;29;20222;-65
2023/01/04 02:11:18;;;;;;;4.63;1.73;;;;;;;;;;4949956;28;20299;-65
2023/01/04 02:16:39;;;;;;;6.05;1.60;;;;;;;;;;4948097;28;20266;-65
2023/01/04 02:19:06;;;;;;;4.87;1.80;;;;;;;;;;4933199;29;20215;-65
2023/01/04 02:21:38;;;;;;;3.42;1.40;;;;;;;;;;4935315;29;20226;-65
2023/01/04 02:24:19;;;;;;;4.47;1.48;;;;;;;;;;4934378;29;20580;-65
2023/01/04 02:26:55;;;;;;;3.27;1.33;;;;;;;;;;4935117;29;20774;-65
2023/01/04 02:29:27;;;;;;;3.55;1.20;;;;;;;;;;4933088;29;20314;-65
2023/01/04 02:31:53;;;;;;;4.32;1.85;;;;;;;;;;4935097;29;20246;-66
2023/01/04 02:34:20;;;;;;;2.17;1.20;;;;;;;;;;4940900;28;20242;-65
2023/01/04 02:36:54;;;;;;;6.75;1.38;;;;;;;;;;4955441;28;20261;-65
2023/01/04 02:39:25;;;;;;;5.72;1.48;;;;;;;;;;4970049;28;20297;-65
2023/01/04 02:41:51;;;;;;;3.40;1.30;;;;;;;;;;4968826;28;20214;-64
2023/01/04 02:47:12;;;;;;;3.42;1.30;;;;;;;;;;4974245;28;20237;-65
2023/01/04 02:52:21;;;;;;;3.38;1.38;;;;;;;;;;4973544;28;20217;-65
2023/01/04 02:54:47;;;;;;;3.67;1.53;;;;;;;;;;4974685;28;20623;-65
2023/01/04 02:57:13;;;;;;;2.50;1.48;;;;;;;;;;4973990;28;20230;-65
2023/01/04 02:59:39;;;;;;;3.83;1.30;;;;;;;;;;4974019;28;20288;-65
2023/01/04 03:08:02;;;;;;;2.92;1.40;;;;;;;;;;4954469;28;20241;-65
2023/01/04 03:10:30;;;;;;;4.07;1.60;;;;;;;;;;4953517;29;20227;-65
2023/01/04 03:13:00;;;;;;;5.25;1.50;;;;;;;;;;4953068;29;20226;-65
2023/01/04 03:15:27;;;;;;;2.90;1.40;;;;;;;;;;4953366;29;20214;-65
2023/01/04 03:17:54;;;;;;;4.97;1.60;;;;;;;;;;4953772;29;20233;-65
2023/01/04 03:20:19;;;;;;;2.88;1.38;;;;;;;;;;4954014;28;20217;-65
2023/01/04 03:36:47;;;;;;;2.33;1.20;;;;;;;;;;4934884;28;20222;-65
2023/01/04 03:50:48;;;;;;;3.40;1.33;;;;;;;;;;4939379;28;20269;-65
2023/01/04 03:53:13;;;;;;;6.40;1.75;;;;;;;;;;4917514;29;20219;-65
2023/01/04 03:55:39;;;;;;;2.58;1.25;;;;;;;;;;4933210;29;20217;-65
2023/01/04 03:58:04;;;;;;;2.00;1.10;;;;;;;;;;4933346;29;20314;-65
2023/01/04 04:00:29;;;;;;;3.97;1.27;;;;;;;;;;4934880;29;20219;-65
2023/01/04 04:03:06;;;;;;;2.33;1.20;;;;;;;;;;4933245;29;20215;-65
2023/01/04 04:08:28;;;;;;;3.42;1.50;;;;;;;;;;4925875;29;20816;-65
2023/01/04 04:10:54;;;;;;;2.17;1.40;;;;;;;;;;4938176;28;20219;-65
2023/01/04 04:13:19;;;;;;;2.83;1.00;;;;;;;;;;4915805;29;20643;-65
2023/01/04 04:15:44;;;;;;;2.92;1.13;;;;;;;;;;4916165;29;20297;-65
2023/01/04 04:18:10;;;;;;;2.72;1.20;;;;;;;;;;4915931;29;20219;-65
2023/01/04 04:20:35;;;;;;;2.17;1.08;;;;;;;;;;4922135;29;20612;-65
2023/01/04 04:23:00;;;;;;;2.30;1.23;;;;;;;;;;4923058;29;20693;-66
2023/01/04 04:25:26;;;;;;;2.22;1.13;;;;;;;;;;4922827;29;20321;-65
2023/01/04 04:27:51;;;;;;;3.33;1.20;;;;;;;;;;4942853;28;20619;-65
2023/01/04 04:30:16;;;;;;;2.70;1.30;;;;;;;;;;4941182;28;20670;-65
2023/01/04 04:32:41;;;;;;;2.10;1.30;;;;;;;;;;4942755;28;20309;-65
2023/01/04 04:35:07;;;;;;;1.67;1.30;;;;;;;;;;4937814;28;20325;-65
2023/01/04 04:37:33;;;;;;;1.58;1.20;;;;;;;;;;4933084;28;20461;-65
2023/01/04 04:39:59;;;;;;;0.88;0.50;;;;;;;;;;4934918;28;20576;-65
2023/01/04 04:42:24;;;;;;;3.90;1.13;;;;;;;;;;4920158;29;20215;-65
2023/01/04 04:44:49;;;;;;;0.55;0.30;;;;;;;;;;4922451;29;20211;-65
2023/01/04 04:47:15;;;;;;;0.40;0.30;;;;;;;;;;4923105;29;20290;-65
2023/01/04 04:49:40;;;;;;;1.90;0.90;;;;;;;;;;4923478;29;20336;-65
2023/01/04 04:52:05;;;;;;;1.33;0.55;;;;;;;;;;4922855;29;20218;-66
2023/01/04 04:54:30;;;;;;;0.80;0.40;;;;;;;;;;4923332;29;20243;-65
2023/01/04 04:56:56;;;;;;;0.75;0.50;;;;;;;;;;4921603;29;20417;-65
2023/01/04 04:59:21;;;;;;;0.88;0.68;;;;;;;;;;4915332;29;20317;-65
2023/01/04 05:01:46;;;;;;;1.05;0.60;;;;;;;;;;4915997;29;20218;-65
2023/01/04 05:04:15;;;;;;;0.95;0.60;;;;;;;;;;4917927;29;20208;-65
2023/01/04 05:06:41;;;;;;;0.95;0.80;;;;;;;;;;4923471;28;20203;-65
2023/01/04 05:09:06;;;;;;;0.77;0.60;;;;;;;;;;4922510;29;20219;-65
2023/01/04 05:14:15;;;;;;;2.50;1.40;;;;;;;;;;4939984;28;20643;-65
2023/01/04 05:16:41;;;;;;;1.40;0.85;;;;;;;;;;4941880;28;20202;-65
2023/01/04 05:19:06;;;;;;;3.33;1.90;;;;;;;;;;4940301;28;20206;-65
2023/01/04 05:21:31;;;;;;;4.50;1.83;;;;;;;;;;4935057;28;20717;-65
2023/01/04 05:23:57;;;;;;;3.00;1.83;;;;;;;;;;4934121;28;20246;-65
2023/01/04 05:26:22;;;;;;;4.20;2.00;;;;;;;;;;4934557;28;20210;-65
2023/01/04 05:28:47;;;;;;;4.40;2.00;;;;;;;;;;4941072;28;20569;-65
2023/01/04 05:31:13;;;;;;;3.75;1.90;;;;;;;;;;4941346;28;20218;-65
2023/01/04 05:33:38;;;;;;;3.42;2.08;;;;;;;;;;4940997;28;20249;-65
2023/01/04 05:36:04;;;;;;;3.88;2.20;;;;;;;;;;4941296;28;20230;-65
2023/01/04 05:38:29;;;;;;;6.75;2.10;;;;;;;;;;4941322;28;20234;-65
2023/01/04 05:40:55;;;;;;;3.88;1.90;;;;;;;;;;4935779;28;20207;-65
2023/01/04 05:43:20;;;;;;;3.10;2.15;;;;;;;;;;4917104;29;20310;-65
2023/01/04 05:45:46;;;;;;;4.53;1.98;;;;;;;;;;4915471;29;20227;-65
2023/01/04 05:48:12;;;;;;;3.42;2.03;;;;;;;;;;4913746;29;20745;-65
2023/01/04 05:50:37;;;;;;;2.55;1.70;;;;;;;;;;4924455;29;20250;-65
2023/01/04 05:53:02;;;;;;;4.03;2.05;;;;;;;;;;4926251;29;20217;-66
2023/01/04 05:55:27;;;;;;;3.30;1.83;;;;;;;;;;4926055;29;20687;-66
2023/01/04 05:57:53;;;;;;;3.67;1.98;;;;;;;;;;4926238;29;20218;-65
2023/01/04 06:00:18;;;;;;;4.75;2.33;;;;;;;;;;4925661;29;20225;-65
2023/01/04 06:02:43;;;;;;;5.10;2.22;;;;;;;;;;4925731;29;20267;-65
2023/01/04 06:05:09;;;;;;;4.40;2.30;;;;;;;;;;4923243;28;20790;-65
2023/01/04 06:07:35;;;;;;;4.20;1.95;;;;;;;;;;4919635;28;20293;-65
2023/01/04 06:10:00;;;;;;;4.63;2.35;;;;;;;;;;4917947;29;20265;-65
2023/01/04 06:12:25;;;;;;;5.93;2.50;;;;;;;;;;4920731;29;20214;-65
2023/01/04 06:14:51;;;;;;;5.13;2.20;;;;;;;;;;4926529;29;20250;-65
2023/01/04 06:17:16;;;;;;;6.18;1.95;;;;;;;;;;4945075;28;20230;-65
2023/01/04 06:19:41;;;;;;;7.38;2.35;;;;;;;;;;4946621;28;20207;-65
2023/01/04 06:22:07;;;;;;;4.97;2.17;;;;;;;;;;4945142;28;20210;-65
2023/01/04 06:24:33;;;;;;;4.40;2.25;;;;;;;;;;4945937;28;20327;-65
2023/01/04 06:26:59;;;;;;;4.38;1.90;;;;;;;;;;4944371;28;20355;-65
2023/01/04 06:29:24;;;;;;;4.82;2.00;;;;;;;;;;4928076;28;20512;-65
2023/01/04 06:31:49;;;;;;;3.28;1.98;;;;;;;;;;4918310;29;20215;-65
2023/01/04 06:34:15;;;;;;;3.35;1.88;;;;;;;;;;4918608;29;20802;-65
2023/01/04 06:36:40;;;;;;;4.82;1.80;;;;;;;;;;4924911;29;20769;-65
2023/01/04 06:39:05;;;;;;;4.93;1.95;;;;;;;;;;4925400;29;20695;-65
2023/01/04 06:41:32;;;;;;;2.97;1.63;;;;;;;;;;4925710;29;20275;-65
2023/01/04 06:43:57;;;;;;;3.38;1.63;;;;;;;;;;4924880;29;20238;-65
2023/01/04 06:46:23;;;;;;;4.72;1.70;;;;;;;;;;4925386;29;20216;-65
2023/01/04 06:48:48;;;;;;;2.55;1.35;;;;;;;;;;4925711;29;20470;-65
2023/01/04 06:51:13;;;;;;;4.25;1.85;;;;;;;;;;4919900;29;20222;-65
2023/01/04 06:53:39;;;;;;;3.10;1.70;;;;;;;;;;4918596;29;20587;-65
2023/01/04 06:56:04;;;;;;;3.22;1.58;;;;;;;;;;4918306;29;20302;-65
2023/01/04 06:58:30;;;;;;;3.33;1.75;;;;;;;;;;4941220;28;20226;-65
2023/01/04 07:00:55;;;;;;;3.28;1.75;;;;;;;;;;4944327;28;20815;-65
2023/01/04 07:03:20;;;;;;;4.55;1.67;;;;;;;;;;4943492;28;20250;-65
2023/01/04 07:05:46;;;;;;;3.22;1.60;;;;;;;;;;4935961;28;20710;-65
2023/01/04 07:08:11;;;;;;;5.15;1.67;;;;;;;;;;4925099;29;20215;-65
2023/01/04 07:10:37;;;;;;;5.40;1.80;;;;;;;;;;4925551;29;20219;-65
2023/01/04 07:13:02;;;;;;;4.32;1.70;;;;;;;;;;4921385;29;20217;-65
2023/01/04 07:15:27;;;;;;;4.20;1.75;;;;;;;;;;4917930;29;20219;-65
2023/01/04 07:17:52;;;;;;;4.25;1.60;;;;;;;;;;4918438;29;20219;-66
2023/01/04 07:20:18;;;;;;;3.78;1.50;;;;;;;;;;4919933;29;20262;-66
2023/01/04 07:22:43;;;;;;;3.67;2.00;;;;;;;;;;4924860;29;20441;-65
2023/01/04 07:25:08;;;;;;;4.63;1.80;;;;;;;;;;4924218;29;20217;-67
2023/01/04 07:27:34;;;;;;;3.97;1.60;;;;;;;;;;4924794;29;20215;-67
2023/01/04 07:29:59;;;;;;;5.20;1.90;;;;;;;;;;4924899;29;20793;-67
2023/01/04 07:32:24;;;;;;;3.80;1.50;;;;;;;;;;4924552;29;20670;-66
2023/01/04 07:34:50;;;;;;;4.18;1.83;;;;;;;;;;4924920;29;20223;-67
2023/01/04 07:37:15;;;;;;;3.72;1.52;;;;;;;;;;4918448;29;20322;-66
2023/01/04 07:39:41;;;;;;;3.60;1.38;;;;;;;;;;4918325;29;20219;-66
2023/01/04 07:42:06;;;;;;;3.47;1.40;;;;;;;;;;4918224;29;20698;-67
2023/01/04 07:44:31;;;;;;;3.85;1.50;;;;;;;;;;4925759;29;20526;-66
2023/01/04 07:46:57;;;;;;;3.75;1.60;;;;;;;;;;4924978;29;20219;-66
2023/01/04 07:49:22;;;;;;;5.38;1.80;;;;;;;;;;4925185;29;20218;-67
2023/01/04 07:51:47;;;;;;;2.50;1.20;;;;;;;;;;4925750;29;20706;-66
2023/01/04 07:54:13;;;;;;;3.20;1.55;;;;;;;;;;4921559;29;20214;-67
2023/01/04 07:56:38;;;;;;;5.70;1.80;;;;;;;;;;4924248;29;20983;-65
2023/01/04 07:59:05;;;;;;;3.47;1.70;;;;;;;;;;4919406;29;20204;-65
2023/01/04 08:01:31;;;;;;;6.18;2.75;;;;;;;;;;4936397;28;20301;-65
2023/01/04 08:03:56;;;;;;;4.78;1.40;;;;;;;;;;4950544;28;20297;-65
2023/01/04 08:06:21;;;;;;;4.30;1.75;;;;;;;;;;4951882;28;20214;-65
2023/01/04 08:08:47;;;;;;;4.35;1.88;;;;;;;;;;4951593;29;20210;-65
2023/01/04 08:11:13;;;;;;;3.97;1.83;;;;;;;;;;4951367;28;20561;-65
2023/01/04 08:13:39;;;;;;;7.03;1.73;;;;;;;;;;4951914;29;20309;-65
2023/01/04 08:16:05;;;;;;;6.10;2.03;;;;;;;;;;4933797;28;20290;-66
2023/01/04 08:18:30;;;;;;;4.07;1.77;;;;;;;;;;4933054;29;20282;-66
2023/01/04 08:21:02;;;;;;;4.70;1.75;;;;;;;;;;4951374;28;20212;-66
2023/01/04 08:23:27;;;;;;;6.25;1.80;;;;;;;;;;4951395;28;20214;-67
2023/01/04 08:25:53;;;;;;;6.50;2.03;;;;;;;;;;4953513;28;20289;-66
2023/01/04 08:28:18;;;;;;;2.45;1.60;;;;;;;;;;4950935;28;20734;-66
2023/01/04 08:30:43;;;;;;;4.45;2.00;;;;;;;;;;4952535;28;20230;-65
2023/01/04 08:33:15;;;;;;;5.43;1.80;;;;;;;;;;4952524;28;20682;-65
2023/01/04 08:35:40;;;;;;;3.75;1.83;;;;;;;;;;4950909;28;20230;-65
2023/01/04 08:38:05;;;;;;;7.78;2.30;;;;;;;;;;4951936;28;20326;-65
2023/01/04 08:40:31;;;;;;;7.82;2.10;;;;;;;;;;4953699;28;20641;-65
2023/01/04 08:42:56;;;;;;;4.22;1.73;;;;;;;;;;4952545;28;20243;-65
2023/01/04 08:45:21;;;;;;;5.07;2.30;;;;;;;;;;4952593;28;20228;-64
2023/01/04 08:47:47;;;;;;;3.35;1.80;;;;;;;;;;4953659;28;20210;-65
2023/01/04 08:50:15;;;;;;;6.68;2.25;;;;;;;;;;4952019;28;20213;-66
2023/01/04 08:52:40;;;;;;;4.32;1.77;;;;;;;;;;4950823;28;20301;-66
2023/01/04 08:55:06;;;;;;;4.07;1.80;;;;;;;;;;4952262;28;20309;-66
2023/01/04 08:57:32;;;;;;;3.90;1.50;;;;;;;;;;4952539;28;20717;-66
2023/01/04 08:59:58;;;;;;;5.65;1.83;;;;;;;;;;4947981;28;20202;-66
2023/01/04 09:02:24;;;;;;;3.90;1.70;;;;;;;;;;4952374;28;20712;-65
2023/01/04 09:04:49;;;;;;;5.10;1.45;;;;;;;;;;4951685;28;20222;-66
2023/01/04 09:07:14;;;;;;;4.22;1.58;;;;;;;;;;4952390;28;20217;-64
2023/01/04 09:09:40;;;;;;;3.00;1.50;;;;;;;;;;4952814;28;20203;-65
2023/01/04 09:12:05;;;;;;;6.28;1.75;;;;;;;;;;4951266;28;20244;-65
2023/01/04 09:14:30;;;;;;;3.90;1.58;;;;;;;;;;4952523;28;20210;-65
2023/01/04 09:16:56;;;;;;;3.95;1.73;;;;;;;;;;4952890;28;20214;-65
2023/01/04 09:19:21;;;;;;;4.53;1.70;;;;;;;;;;4951461;28;20206;-65
2023/01/04 09:21:46;;;;;;;5.72;1.90;;;;;;;;;;4952995;28;20202;-65
2023/01/04 09:24:12;;;;;;;4.03;1.60;;;;;;;;;;4951626;28;20203;-65
2023/01/04 09:26:38;;;;;;;4.22;1.35;;;;;;;;;;4952216;28;20226;-65
2023/01/04 09:29:04;;;;;;;4.53;1.90;;;;;;;;;;4951520;28;20604;-65
2023/01/04 09:31:29;;;;;;;3.25;1.80;;;;;;;;;;4952149;28;20254;-65
2023/01/04 09:33:55;;;;;;;5.47;1.95;;;;;;;;;;4952166;28;20218;-65
2023/01/04 09:36:20;;;;;;;5.43;2.08;;;;;;;;;;4952470;28;20736;-66
2023/01/04 09:38:45;;;;;;;8.15;3.00;;;;;;;;;;4929295;28;20230;-65
2023/01/04 09:41:12;;;;;;;4.80;1.67;;;;;;;;;;4949417;28;20242;-65
2023/01/04 09:43:47;;;;;;;4.53;1.88;;;;;;;;;;4935403;29;20569;-65
2023/01/04 09:46:16;;;;;;;4.93;1.80;;;;;;;;;;4934818;28;20261;-65
2023/01/04 09:48:41;;;;;;;4.30;1.40;;;;;;;;;;4936014;29;20214;-63
2023/01/04 09:51:10;;;;;;;7.70;2.20;;;;;;;;;;4952172;28;20551;-65
2023/01/04 09:53:37;;;;;;;6.00;2.10;;;;;;;;;;4934843;29;20210;-65
2023/01/04 09:56:13;;;;;;;7.38;4.30;;;;;;;;;;4952424;28;20243;-65
2023/01/04 09:58:39;;;;;;;9.85;4.20;;;;;;;;;;4952703;28;20587;-66
2023/01/04 10:01:05;;;;;;;7.45;3.25;;;;;;;;;;4951745;28;20297;-66
2023/01/04 10:03:30;;;;;;;6.22;2.22;;;;;;;;;;4936109;29;20220;-66
2023/01/04 10:05:56;;;;;;;5.00;2.53;;;;;;;;;;4952820;28;20301;-65
2023/01/04 10:08:21;;;;;;;6.35;2.53;;;;;;;;;;4951784;29;20564;-66
2023/01/04 10:10:47;;;;;;;4.63;2.28;;;;;;;;;;4952988;29;20218;-66
2023/01/04 10:13:13;;;;;;;4.43;2.10;;;;;;;;;;4948202;29;20226;-66
2023/01/04 10:15:40;;;;;;;5.53;2.08;;;;;;;;;;4952298;29;20696;-66
2023/01/04 10:18:11;;;;;;;6.72;2.83;;;;;;;;;;4935208;29;20705;-65
2023/01/04 10:20:42;;;;;;;4.97;1.63;;;;;;;;;;4952700;29;20214;-65
2023/01/04 10:23:10;;;;;;;5.88;4.30;;;;;;;;;;4951512;29;20581;-66
2023/01/04 10:25:38;;;;;;;5.00;1.80;;;;;;;;;;4935952;29;20273;-66
2023/01/04 10:28:14;;;;;;;3.55;1.73;;;;;;;;;;4923088;29;20219;-66
2023/01/04 10:30:54;;;;;;;3.38;1.60;;;;;;;;;;4933226;29;20211;-66
2023/01/04 10:33:19;;;;;;;4.10;1.90;;;;;;;;;;4932023;29;20426;-65
2023/01/04 10:35:44;;;;;;;5.95;1.80;;;;;;;;;;4951045;28;20305;-65
2023/01/04 10:38:13;;;;;;;3.92;1.98;;;;;;;;;;4955560;28;20302;-67
2023/01/04 10:40:38;;;;;;;4.97;1.92;;;;;;;;;;4956104;28;20750;-66
2023/01/04 10:43:06;;;;;;;3.55;1.70;;;;;;;;;;4937492;28;20300;-66
2023/01/04 10:45:33;;;;;;;5.13;1.60;;;;;;;;;;4940018;29;20222;-66
2023/01/04 10:48:01;;;;;;;4.22;1.83;;;;;;;;;;4953964;28;20215;-66
2023/01/04 10:50:43;;;;;;;4.22;1.95;;;;;;;;;;4956065;28;20218;-66
2023/01/04 10:53:11;;;;;;;4.63;2.10;;;;;;;;;;4939160;28;20216;-66
2023/01/04 10:55:42;;;;;;;4.03;1.90;;;;;;;;;;4957060;28;20281;-66
2023/01/04 10:58:26;;;;;;;2.97;1.42;;;;;;;;;;4933089;28;20318;-66
2023/01/04 11:00:53;;;;;;;4.85;1.52;;;;;;;;;;4956759;28;20297;-66
2023/01/04 11:03:23;;;;;;;4.45;1.50;;;;;;;;;;4955763;28;20218;-66
2023/01/04 11:05:50;;;;;;;2.78;1.45;;;;;;;;;;4939773;29;20275;-66
2023/01/04 11:08:23;;;;;;;2.45;1.27;;;;;;;;;;4956244;28;20238;-66
2023/01/04 11:10:48;;;;;;;3.15;1.45;;;;;;;;;;4939036;29;20566;-66
2023/01/04 11:13:13;;;;;;;3.70;1.70;;;;;;;;;;4955609;28;20213;-66
2023/01/04 11:15:41;;;;;;;4.28;1.90;;;;;;;;;;4956685;28;20221;-66
2023/01/04 11:18:06;;;;;;;4.55;1.80;;;;;;;;;;4955443;28;20214;-66
2023/01/04 11:20:32;;;;;;;2.05;1.40;;;;;;;;;;4956613;28;20210;-66
2023/01/04 11:22:58;;;;;;;3.65;1.77;;;;;;;;;;4939170;29;20218;-66
2023/01/04 11:25:24;;;;;;;7.35;4.45;;;;;;;;;;4938170;28;20222;-66
2023/01/04 11:27:51;;;;;;;9.57;4.05;;;;;;;;;;4956085;28;20222;-66
2023/01/04 11:30:17;;;;;;;4.38;2.58;;;;;;;;;;4953718;28;20210;-66
2023/01/04 11:32:44;;;;;;;3.78;1.77;;;;;;;;;;4955496;28;20211;-66
2023/01/04 11:35:09;;;;;;;2.58;1.60;;;;;;;;;;4953485;28;20228;-66
2023/01/04 11:37:36;;;;;;;2.92;1.63;;;;;;;;;;4956067;28;20226;-66
2023/01/04 11:40:17;;;;;;;5.38;2.22;;;;;;;;;;4955037;28;20234;-66
2023/01/04 11:42:43;;;;;;;7.50;4.55;;;;;;;;;;4936932;29;20304;-67
2023/01/04 11:45:16;;;;;;;5.55;2.88;;;;;;;;;;4936418;29;20214;-66
2023/01/04 11:47:49;;;;;;;8.82;5.72;;;;;;;;;;4935340;29;20258;-66
2023/01/04 11:50:33;;;;;;;7.90;5.47;;;;;;;;;;4936415;29;20211;-66
2023/01/04 11:52:58;;;;;;;8.13;4.75;;;;;;;;;;4951481;28;20218;-66
2023/01/04 11:55:26;;;;;;;4.45;2.42;;;;;;;;;;4955647;28;20213;-66
2023/01/04 11:58:07;;;;;;;7.22;5.00;;;;;;;;;;4953146;28;20223;-66
2023/01/04 12:00:32;;;;;;;2.58;1.42;;;;;;;;;;4954708;29;20236;-66
2023/01/04 12:03:17;;;;;;;3.15;2.10;;;;;;;;;;4955979;29;20242;-65
2023/01/04 12:05:42;;;;;;;7.03;4.15;;;;;;;;;;4945345;28;20317;-66
2023/01/04 12:08:25;;;;;;;3.60;1.65;;;;;;;;;;4953775;28;20729;-66
2023/01/04 12:10:50;;;;;;;3.78;2.10;;;;;;;;;;4949403;28;20219;-66
2023/01/04 12:13:16;;;;;;;4.18;2.42;;;;;;;;;;4931434;29;20213;-66
2023/01/04 12:15:54;;;;;;;6.97;3.75;;;;;;;;;;4918815;29;20302;-66
2023/01/04 12:18:21;;;;;;;7.47;4.30;;;;;;;;;;4919127;29;20219;-65
2023/01/04 12:20:47;;;;;;;4.50;2.30;;;;;;;;;;4918494;29;20215;-65
2023/01/04 12:23:12;;;;;;;2.58;1.50;;;;;;;;;;4935911;29;20206;-65
2023/01/04 12:25:37;;;;;;;4.15;2.20;;;;;;;;;;4919185;29;20212;-65
2023/01/04 12:28:03;;;;;;;4.47;2.97;;;;;;;;;;4934739;29;20211;-65
2023/01/04 12:30:33;;;;;;;4.35;2.25;;;;;;;;;;4936210;29;20219;-65
2023/01/04 12:32:58;;;;;;;7.07;3.70;;;;;;;;;;4935868;29;20259;-65
2023/01/04 12:35:42;;;;;;;8.82;4.07;;;;;;;;;;4940234;28;20242;-65
2023/01/04 12:38:08;;;;;;;11.88;6.55;;;;;;;;;;4954563;28;20225;-65
2023/01/04 12:40:43;;;;;;;5.70;2.30;;;;;;;;;;4957917;28;20214;-65
2023/01/04 12:43:14;;;;;;;8.07;4.80;;;;;;;;;;4972956;28;20213;-65
2023/01/04 12:45:41;;;;;;;5.68;3.33;;;;;;;;;;4974724;28;20245;-65
2023/01/04 12:51:17;;;;;;;7.80;3.63;;;;;;;;;;4970421;28;20221;-65
2023/01/04 12:53:48;;;;;;;4.63;2.67;;;;;;;;;;4955027;28;20302;-65
2023/01/04 12:56:13;;;;;;;4.15;3.17;;;;;;;;;;4953118;28;20202;-65
2023/01/04 12:58:39;;;;;;;6.10;3.15;;;;;;;;;;4951382;28;20313;-65
2023/01/04 13:01:06;;;;;;;5.15;2.00;;;;;;;;;;4953152;28;20577;-65
2023/01/04 13:03:31;;;;;;;6.00;2.50;;;;;;;;;;4953932;28;20218;-65
2023/01/04 13:05:58;;;;;;;4.15;2.05;;;;;;;;;;4960193;28;20217;-65
2023/01/04 13:08:23;;;;;;;5.75;2.03;;;;;;;;;;4972326;28;20654;-64
2023/01/04 13:10:50;;;;;;;5.72;2.00;;;;;;;;;;4973177;28;20276;-64
2023/01/04 13:13:20;;;;;;;5.13;1.95;;;;;;;;;;4968907;28;20212;-65
2023/01/04 13:15:49;;;;;;;6.10;2.15;;;;;;;;;;4972831;28;20214;-64
2023/01/04 13:18:27;;;;;;;6.32;2.00;;;;;;;;;;4972243;28;20426;-65
2023/01/04 13:20:52;;;;;;;6.40;2.30;;;;;;;;;;4972419;28;20213;-64
2023/01/04 13:23:18;;;;;;;6.45;2.05;;;;;;;;;;4973377;28;20576;-64
2023/01/04 13:25:43;;;;;;;6.30;2.50;;;;;;;;;;4970974;28;20429;-67
2023/01/04 13:28:12;;;;;;;6.75;1.85;;;;;;;;;;4972859;28;20213;-64
2023/01/04 13:30:37;;;;;;;5.13;1.92;;;;;;;;;;4971888;28;21004;-65
2023/01/04 13:33:09;;;;;;;5.82;1.83;;;;;;;;;;4972481;28;20296;-64
2023/01/04 13:35:35;;;;;;;4.20;1.80;;;;;;;;;;4972195;28;20253;-64
2023/01/04 13:38:00;;;;;;;5.13;2.10;;;;;;;;;;4972653;28;20249;-64
2023/01/04 13:40:26;;;;;;;6.15;2.00;;;;;;;;;;4971187;28;20297;-65
2023/01/04 13:42:57;;;;;;;6.40;2.17;;;;;;;;;;4952719;28;20265;-64
2023/01/04 13:45:35;;;;;;;5.68;2.05;;;;;;;;;;4951787;28;20237;-65
2023/01/04 13:48:02;;;;;;;7.57;2.13;;;;;;;;;;4936688;28;20574;-64
2023/01/04 13:50:30;;;;;;;5.57;1.85;;;;;;;;;;4952810;28;20203;-65
2023/01/04 13:52:55;;;;;;;6.97;2.17;;;;;;;;;;4970628;28;20232;-65
2023/01/04 13:55:20;;;;;;;6.90;1.90;;;;;;;;;;4970476;28;20698;-66
2023/01/04 13:57:57;;;;;;;7.28;2.30;;;;;;;;;;4972919;28;20225;-66
2023/01/04 14:00:23;;;;;;;6.10;2.13;;;;;;;;;;4972184;28;20256;-66
2023/01/04 14:03:00;;;;;;;5.57;2.50;;;;;;;;;;4972097;28;20723;-66
2023/01/04 14:05:25;;;;;;;6.28;2.45;;;;;;;;;;4971637;28;20281;-65
2023/01/04 14:07:51;;;;;;;10.38;2.50;;;;;;;;;;4972715;28;20665;-66
2023/01/04 14:10:16;;;;;;;6.55;2.25;;;;;;;;;;4988536;28;20225;-66
2023/01/04 14:12:42;;;;;;;5.47;2.00;;;;;;;;;;4991906;28;20255;-66
2023/01/04 14:15:14;;;;;;;7.75;2.58;;;;;;;;;;4976005;28;20677;-65
2023/01/04 14:17:45;;;;;;;8.27;2.30;;;;;;;;;;4977265;28;20228;-65
2023/01/04 14:20:12;;;;;;;6.88;2.50;;;;;;;;;;4975760;28;20214;-65
2023/01/04 14:22:43;;;;;;;6.80;2.40;;;;;;;;;;4977254;28;20215;-66
2023/01/04 14:25:27;;;;;;;6.55;2.00;;;;;;;;;;4976480;28;20297;-65
2023/01/04 14:27:53;;;;;;;10.57;3.63;;;;;;;;;;4975651;28;20217;-66
2023/01/04 14:30:18;;;;;;;8.05;3.38;;;;;;;;;;4975952;28;20218;-65
2023/01/04 14:32:57;;;;;;;6.30;2.47;;;;;;;;;;4976899;28;20221;-65
2023/01/04 14:35:22;;;;;;;6.78;2.38;;;;;;;;;;4962242;28;20250;-66
2023/01/04 14:37:48;;;;;;;5.88;2.33;;;;;;;;;;4940220;29;20248;-65
2023/01/04 14:40:15;;;;;;;9.32;2.40;;;;;;;;;;4956547;29;20682;-65
2023/01/04 14:42:40;;;;;;;5.10;1.50;;;;;;;;;;4919845;29;20585;-65
2023/01/04 14:45:10;;;;;;;8.65;2.17;;;;;;;;;;4937532;29;20222;-64
2023/01/04 14:47:36;;;;;;;7.93;2.00;;;;;;;;;;4920856;29;20219;-65
2023/01/04 14:50:01;;;;;;;9.02;1.83;;;;;;;;;;4936761;29;20350;-65
2023/01/04 14:52:27;;;;;;;6.93;1.70;;;;;;;;;;4953434;28;20544;-64
2023/01/04 14:54:52;;;;;;;7.80;1.80;;;;;;;;;;4956735;28;20231;-65
2023/01/04 14:57:17;;;;;;;5.45;1.70;;;;;;;;;;4947840;28;20580;-65
2023/01/04 14:59:44;;;;;;;8.45;2.25;;;;;;;;;;4931660;29;20219;-65
2023/01/04 15:02:12;;;;;;;8.68;1.85;;;;;;;;;;4936757;29;20237;-65
2023/01/04 15:04:37;;;;;;;7.57;1.90;;;;;;;;;;4934658;29;20655;-65
2023/01/04 15:07:03;;;;;;;6.88;1.95;;;;;;;;;;4933868;29;20211;-65
2023/01/04 15:09:28;;;;;;;7.03;2.00;;;;;;;;;;4934250;28;20694;-65
2023/01/04 15:11:54;;;;;;;9.02;2.40;;;;;;;;;;4935037;29;20794;-65
2023/01/04 15:14:19;;;;;;;8.15;2.00;;;;;;;;;;4933214;28;21027;-67
2023/01/04 15:16:44;;;;;;;2.63;1.08;;;;;;;;;;4932702;29;20258;-66
2023/01/04 15:19:10;;;;;;;5.28;1.80;;;;;;;;;;4932425;29;20269;-66
2023/01/04 15:21:35;;;;;;;6.90;1.90;;;;;;;;;;4934230;28;20347;-65
2023/01/04 15:24:01;;;;;;;7.03;3.05;;;;;;;;;;4931095;29;20698;-65
2023/01/04 15:26:26;;;;;;;7.13;2.22;;;;;;;;;;4932490;29;20219;-65
2023/01/04 15:28:51;;;;;;;7.28;1.80;;;;;;;;;;4932757;29;20262;-65
2023/01/04 15:31:17;;;;;;;5.88;2.00;;;;;;;;;;4932709;29;20333;-65